createdAt,value
2018-01-29T00:01:26.151Z,12.30
2018-01-29T00:03:54.929Z,12.30
2018-01-29T00:06:23.612Z,12.30
2018-01-29T00:08:52.255Z,12.30
2018-01-29T00:11:21.605Z,12.30
2018-01-29T00:13:50.603Z,12.30
2018-01-29T00:16:19.290Z,12.30
2018-01-29T00:18:48.179Z,12.30
2018-01-29T00:21:16.800Z,12.20
2018-01-29T00:23:45.422Z,12.20
2018-01-29T00:26:14.007Z,12.20
2018-01-29T00:28:42.923Z,12.20
2018-01-29T00:31:11.520Z,12.20
2018-01-29T00:33:40.128Z,12.30
2018-01-29T00:36:08.811Z,12.20
2018-01-29T00:38:37.461Z,12.20
2018-01-29T00:41:06.252Z,12.10
2018-01-29T00:43:35.145Z,12.20
2018-01-29T00:46:04.037Z,12.20
2018-01-29T00:48:32.704Z,12.10
2018-01-29T00:51:01.323Z,12.10
2018-01-29T00:53:29.945Z,12.10
2018-01-29T00:55:58.590Z,12.00
2018-01-29T00:58:27.201Z,12.00
2018-01-29T01:00:55.816Z,12.00
2018-01-29T01:03:24.533Z,12.00
2018-01-29T01:05:53.321Z,12.00
2018-01-29T01:08:22.005Z,12.00
2018-01-29T01:10:50.699Z,12.10
2018-01-29T01:13:19.335Z,12.10
2018-01-29T01:15:48.746Z,12.20
2018-01-29T01:18:17.360Z,12.10
2018-01-29T01:20:46.035Z,12.20
2018-01-29T01:23:14.704Z,12.10
2018-01-29T01:25:43.303Z,12.10
2018-01-29T01:28:12.066Z,12.00
2018-01-29T01:30:40.686Z,12.00
2018-01-29T01:33:09.326Z,12.10
2018-01-29T01:35:38.173Z,12.20
2018-01-29T01:38:06.856Z,12.20
2018-01-29T01:40:35.749Z,12.30
2018-01-29T01:43:04.635Z,12.20
2018-01-29T01:45:33.531Z,12.20
2018-01-29T01:48:02.164Z,12.30
2018-01-29T01:50:31.110Z,12.30
2018-01-29T01:52:59.958Z,12.20
2018-01-29T01:55:28.559Z,12.10
2018-01-29T01:57:57.271Z,12.10
2018-01-29T02:00:26.011Z,12.10
2018-01-29T02:02:54.739Z,12.00
2018-01-29T02:05:23.535Z,12.10
2018-01-29T02:07:52.425Z,12.10
2018-01-29T02:10:21.320Z,12.00
2018-01-29T02:12:50.771Z,11.90
2018-01-29T02:15:19.492Z,11.90
2018-01-29T02:17:48.193Z,11.90
2018-01-29T02:20:17.080Z,11.90
2018-01-29T02:22:45.717Z,12.00
2018-01-29T02:25:14.659Z,12.00
2018-01-29T02:27:43.757Z,12.00
2018-01-29T02:30:12.440Z,11.90
2018-01-29T02:32:41.125Z,12.00
2018-01-29T02:35:10.014Z,12.00
2018-01-29T02:37:38.714Z,12.00
2018-01-29T02:40:07.350Z,11.90
2018-01-29T02:42:35.984Z,11.90
2018-01-29T02:45:04.652Z,11.90
2018-01-29T02:47:33.347Z,11.90
2018-01-29T02:50:02.145Z,11.90
2018-01-29T02:52:31.830Z,11.90
2018-01-29T02:55:00.534Z,11.90
2018-01-29T02:57:29.423Z,11.90
2018-01-29T02:59:58.173Z,11.90
2018-01-29T03:02:26.903Z,11.90
2018-01-29T03:04:55.789Z,11.90
2018-01-29T03:07:24.474Z,11.90
2018-01-29T03:09:53.574Z,11.80
2018-01-29T03:12:22.462Z,11.80
2018-01-29T03:14:51.144Z,11.80
2018-01-29T03:17:19.835Z,11.80
2018-01-29T03:19:48.721Z,11.80
2018-01-29T03:22:18.227Z,11.70
2018-01-29T03:24:47.117Z,11.70
2018-01-29T03:27:16.011Z,11.70
2018-01-29T03:29:44.694Z,11.70
2018-01-29T03:32:13.384Z,11.70
2018-01-29T03:34:42.478Z,11.70
2018-01-29T03:37:11.163Z,11.70
2018-01-29T03:39:39.858Z,11.70
2018-01-29T03:42:08.680Z,11.70
2018-01-29T03:44:37.431Z,11.70
2018-01-29T03:47:06.113Z,11.70
2018-01-29T03:49:34.799Z,11.70
2018-01-29T03:52:03.693Z,11.70
2018-01-29T03:54:32.581Z,11.70
2018-01-29T03:57:02.294Z,11.70
2018-01-29T03:59:30.979Z,11.70
2018-01-29T04:01:59.665Z,11.60
2018-01-29T04:04:28.761Z,11.70
2018-01-29T04:06:57.447Z,11.60
2018-01-29T04:09:26.130Z,11.60
2018-01-29T04:11:54.758Z,11.70
2018-01-29T04:14:23.508Z,11.60
2018-01-29T04:16:52.192Z,11.60
2018-01-29T04:19:20.928Z,11.60
2018-01-29T04:21:50.077Z,11.50
2018-01-29T04:24:18.865Z,11.60
2018-01-29T04:26:47.698Z,11.60
2018-01-29T04:29:16.442Z,11.60
2018-01-29T04:31:45.125Z,11.60
2018-01-29T04:34:14.019Z,11.50
2018-01-29T04:36:42.715Z,11.50
2018-01-29T04:39:11.492Z,11.50
2018-01-29T04:41:40.386Z,11.60
2018-01-29T04:44:09.285Z,11.60
2018-01-29T04:46:38.171Z,11.50
2018-01-29T04:49:06.851Z,11.50
2018-01-29T04:51:35.556Z,11.60
2018-01-29T04:54:04.432Z,11.50
2018-01-29T04:56:40.180Z,11.50
2018-01-29T04:59:08.812Z,11.50
2018-01-29T05:01:37.558Z,11.40
2018-01-29T05:04:06.446Z,11.50
2018-01-29T05:06:35.340Z,11.50
2018-01-29T05:09:05.049Z,11.40
2018-01-29T05:11:33.937Z,11.40
2018-01-29T05:14:02.831Z,11.50
2018-01-29T05:16:31.585Z,11.50
2018-01-29T05:19:00.409Z,11.50
2018-01-29T05:21:29.295Z,11.50
2018-01-29T05:23:58.186Z,11.50
2018-01-29T05:26:26.873Z,11.50
2018-01-29T05:28:56.379Z,11.40
2018-01-29T05:31:25.212Z,11.40
2018-01-29T05:33:54.067Z,11.40
2018-01-29T05:36:33.756Z,11.30
2018-01-29T05:39:02.900Z,11.40
2018-01-29T05:41:33.428Z,11.30
2018-01-29T05:44:02.318Z,11.30
2018-01-29T05:46:31.414Z,11.40
2018-01-29T05:49:00.100Z,11.40
2018-01-29T05:51:28.996Z,11.40
2018-01-29T05:53:57.884Z,11.40
2018-01-29T05:56:26.569Z,11.40
2018-01-29T05:58:55.258Z,11.40
2018-01-29T06:01:23.964Z,11.30
2018-01-29T06:03:52.834Z,11.40
2018-01-29T06:06:21.622Z,11.40
2018-01-29T06:08:50.310Z,11.40
2018-01-29T06:11:18.922Z,11.30
2018-01-29T06:13:47.680Z,11.40
2018-01-29T06:16:16.317Z,11.40
2018-01-29T06:18:45.054Z,11.40
2018-01-29T06:21:13.949Z,11.40
2018-01-29T06:23:42.633Z,11.40
2018-01-29T06:26:11.523Z,11.40
2018-01-29T06:28:40.308Z,11.40
2018-01-29T06:31:09.100Z,11.40
2018-01-29T06:33:37.789Z,11.40
2018-01-29T06:36:06.420Z,11.30
2018-01-29T06:38:35.157Z,11.30
2018-01-29T06:41:03.775Z,11.40
2018-01-29T06:43:32.399Z,11.40
2018-01-29T06:46:01.840Z,11.40
2018-01-29T06:48:30.518Z,11.40
2018-01-29T06:50:59.414Z,11.40
2018-01-29T06:53:28.300Z,11.30
2018-01-29T06:55:56.990Z,11.40
2018-01-29T06:58:25.822Z,11.30
2018-01-29T07:00:54.695Z,11.40
2018-01-29T07:03:24.857Z,11.30
2018-01-29T07:05:53.786Z,11.30
2018-01-29T07:08:22.570Z,11.40
2018-01-29T07:10:51.353Z,11.40
2018-01-29T07:13:19.992Z,11.40
2018-01-29T07:15:48.728Z,11.40
2018-01-29T07:18:17.805Z,11.40
2018-01-29T07:20:46.883Z,11.40
2018-01-29T07:23:15.556Z,11.50
2018-01-29T07:25:44.171Z,11.50
2018-01-29T07:28:12.974Z,11.40
2018-01-29T07:30:42.648Z,11.40
2018-01-29T07:33:11.414Z,11.40
2018-01-29T07:35:40.266Z,11.30
2018-01-29T07:38:09.206Z,11.30
2018-01-29T07:40:38.148Z,11.40
2018-01-29T07:43:07.141Z,11.40
2018-01-29T07:45:35.857Z,11.50
2018-01-29T07:48:04.473Z,11.50
2018-01-29T07:50:33.405Z,11.60
2018-01-29T07:53:02.604Z,11.70
2018-01-29T07:55:31.178Z,11.70
2018-01-29T07:57:59.970Z,11.70
2018-01-29T08:00:28.866Z,11.80
2018-01-29T08:02:57.554Z,11.80
2018-01-29T08:05:26.447Z,11.80
2018-01-29T08:07:55.336Z,11.80
2018-01-29T08:10:24.021Z,11.90
2018-01-29T08:12:52.655Z,12.00
2018-01-29T08:15:21.398Z,12.00
2018-01-29T08:17:50.080Z,12.00
2018-01-29T08:20:18.918Z,12.10
2018-01-29T08:22:48.580Z,12.30
2018-01-29T08:25:17.470Z,12.30
2018-01-29T08:27:46.363Z,12.30
2018-01-29T08:30:15.356Z,12.30
2018-01-29T08:32:44.252Z,12.40
2018-01-29T08:35:13.138Z,12.40
2018-01-29T08:37:41.823Z,12.50
2018-01-29T08:40:10.714Z,12.50
2018-01-29T08:42:39.401Z,12.60
2018-01-29T08:45:08.298Z,12.70
2018-01-29T08:47:37.027Z,12.70
2018-01-29T08:50:05.766Z,12.70
2018-01-29T08:52:34.663Z,12.80
2018-01-29T08:55:03.349Z,12.80
2018-01-29T08:57:32.746Z,12.80
2018-01-29T09:00:01.637Z,12.80
2018-01-29T09:02:30.334Z,12.70
2018-01-29T09:04:59.115Z,12.70
2018-01-29T09:07:27.798Z,12.80
2018-01-29T09:09:56.598Z,12.80
2018-01-29T09:12:25.384Z,12.90
2018-01-29T09:14:54.269Z,12.90
2018-01-29T09:17:23.158Z,12.90
2018-01-29T09:19:52.057Z,13.00
2018-01-29T09:22:20.661Z,13.10
2018-01-29T09:24:49.328Z,13.20
2018-01-29T09:27:18.321Z,13.20
2018-01-29T09:29:47.207Z,13.10
2018-01-29T09:32:15.997Z,13.30
2018-01-29T09:34:44.891Z,13.30
2018-01-29T09:37:13.670Z,13.30
2018-01-29T09:39:42.566Z,13.30
2018-01-29T09:42:11.254Z,13.50
2018-01-29T09:44:39.895Z,13.50
2018-01-29T09:47:08.620Z,13.50
2018-01-29T09:49:37.315Z,13.70
2018-01-29T09:52:05.975Z,13.70
2018-01-29T09:54:34.654Z,13.90
2018-01-29T09:57:03.454Z,14.00
2018-01-29T09:59:32.099Z,14.00
2018-01-29T10:02:00.841Z,13.90
2018-01-29T10:04:29.528Z,13.90
2018-01-29T10:06:58.426Z,13.80
2018-01-29T10:09:27.309Z,13.80
2018-01-29T10:11:56.145Z,13.80
2018-01-29T10:14:25.093Z,13.80
2018-01-29T10:16:53.903Z,13.80
2018-01-29T10:19:22.876Z,13.90
2018-01-29T10:21:52.690Z,13.90
2018-01-29T10:24:21.476Z,13.90
2018-01-29T10:26:50.321Z,14.00
2018-01-29T10:29:19.260Z,14.00
2018-01-29T10:31:47.943Z,14.10
2018-01-29T10:34:16.629Z,14.20
2018-01-29T10:36:46.137Z,14.40
2018-01-29T10:39:14.831Z,14.30
2018-01-29T10:41:43.712Z,14.40
2018-01-29T10:44:12.457Z,14.40
2018-01-29T10:46:41.192Z,14.50
2018-01-29T10:49:09.835Z,14.50
2018-01-29T10:51:38.821Z,14.60
2018-01-29T10:54:07.555Z,14.70
2018-01-29T10:56:36.445Z,14.70
2018-01-29T10:59:05.041Z,14.80
2018-01-29T11:01:34.023Z,14.80
2018-01-29T11:04:02.666Z,14.80
2018-01-29T11:06:32.112Z,14.80
2018-01-29T11:09:01.002Z,14.70
2018-01-29T11:11:30.716Z,15.00
2018-01-29T11:13:59.600Z,14.90
2018-01-29T11:16:28.295Z,14.90
2018-01-29T11:18:57.182Z,14.90
2018-01-29T11:21:26.276Z,15.00
2018-01-29T11:23:54.852Z,15.10
2018-01-29T11:26:23.646Z,15.20
2018-01-29T11:28:52.536Z,15.20
2018-01-29T11:31:22.257Z,15.30
2018-01-29T11:33:50.937Z,15.30
2018-01-29T11:36:19.824Z,15.20
2018-01-29T11:38:48.431Z,15.40
2018-01-29T11:41:17.134Z,15.60
2018-01-29T11:43:45.900Z,15.60
2018-01-29T11:46:14.574Z,15.60
2018-01-29T11:48:43.200Z,15.40
2018-01-29T11:51:11.897Z,15.30
2018-01-29T11:53:41.050Z,15.30
2018-01-29T11:56:09.723Z,15.30
2018-01-29T11:58:38.591Z,15.40
2018-01-29T12:01:07.207Z,15.60
2018-01-29T12:03:35.825Z,15.70
2018-01-29T12:06:05.291Z,15.80
2018-01-29T12:08:34.190Z,15.80
2018-01-29T12:11:03.080Z,15.80
2018-01-29T12:13:31.758Z,15.70
2018-01-29T12:16:00.385Z,15.60
2018-01-29T12:18:29.916Z,15.70
2018-01-29T12:20:59.455Z,15.70
2018-01-29T12:23:28.295Z,15.70
2018-01-29T12:25:57.188Z,15.90
2018-01-29T12:28:26.744Z,15.70
2018-01-29T12:30:56.249Z,15.60
2018-01-29T12:33:25.241Z,15.60
2018-01-29T12:35:54.048Z,15.60
2018-01-29T12:38:22.927Z,15.60
2018-01-29T12:40:51.819Z,15.60
2018-01-29T12:43:21.553Z,15.60
2018-01-29T12:45:56.149Z,15.70
2018-01-29T12:48:24.774Z,15.80
2018-01-29T12:50:53.531Z,15.80
2018-01-29T12:53:22.450Z,15.80
2018-01-29T12:55:51.061Z,15.70
2018-01-29T12:58:19.789Z,16.70
2018-01-29T13:00:48.688Z,15.70
2018-01-29T13:03:18.181Z,15.70
2018-01-29T13:05:46.866Z,15.70
2018-01-29T13:08:15.652Z,15.80
2018-01-29T13:10:44.339Z,15.80
2018-01-29T13:13:13.030Z,15.60
2018-01-29T13:15:41.650Z,15.70
2018-01-29T13:18:10.400Z,15.60
2018-01-29T13:20:39.024Z,15.80
2018-01-29T13:23:07.784Z,15.90
2018-01-29T13:25:36.600Z,15.90
2018-01-29T13:28:05.470Z,15.80
2018-01-29T13:30:34.339Z,15.70
2018-01-29T13:33:03.236Z,15.70
2018-01-29T13:35:31.918Z,15.70
2018-01-29T13:38:00.608Z,15.60
2018-01-29T13:40:29.698Z,15.60
2018-01-29T13:42:58.592Z,15.70
2018-01-29T13:45:27.588Z,15.70
2018-01-29T13:47:56.234Z,15.60
2018-01-29T13:50:25.625Z,15.70
2018-01-29T13:52:54.251Z,15.60
2018-01-29T13:55:22.837Z,14.50
2018-01-29T13:57:51.834Z,15.70
2018-01-29T14:00:20.724Z,15.70
2018-01-29T14:02:49.380Z,15.80
2018-01-29T14:05:19.116Z,16.00
2018-01-29T14:07:47.807Z,15.80
2018-01-29T14:10:16.378Z,15.90
2018-01-29T14:12:45.077Z,16.10
2018-01-29T14:15:13.967Z,16.20
2018-01-29T14:17:42.968Z,16.10
2018-01-29T14:20:11.648Z,16.10
2018-01-29T14:22:40.540Z,16.00
2018-01-29T14:25:09.624Z,16.10
2018-01-29T14:27:38.527Z,16.30
2018-01-29T14:30:07.317Z,16.20
2018-01-29T14:32:36.183Z,16.20
2018-01-29T14:35:05.097Z,16.30
2018-01-29T14:37:33.990Z,16.30
2018-01-29T14:40:02.777Z,16.10
2018-01-29T14:42:31.420Z,16.00
2018-01-29T14:45:00.084Z,16.00
2018-01-29T14:47:28.684Z,16.20
2018-01-29T14:49:58.140Z,16.30
2018-01-29T14:52:27.031Z,16.30
2018-01-29T14:54:55.918Z,16.40
2018-01-29T14:57:24.753Z,16.80
2018-01-29T14:59:53.500Z,16.70
2018-01-29T15:02:22.161Z,17.20
2018-01-29T15:04:50.801Z,18.30
2018-01-29T15:07:19.558Z,19.20
2018-01-29T15:09:48.445Z,20.10
2018-01-29T15:12:17.257Z,20.60
2018-01-29T15:14:46.704Z,19.00
2018-01-29T15:17:15.424Z,19.00
2018-01-29T15:19:44.113Z,18.10
2018-01-29T15:22:13.001Z,18.90
2018-01-29T15:24:41.689Z,19.00
2018-01-29T15:27:10.541Z,18.50
2018-01-29T15:29:39.423Z,17.70
2018-01-29T15:32:08.108Z,17.30
2018-01-29T15:34:36.719Z,16.60
2018-01-29T15:37:05.529Z,16.40
2018-01-29T15:39:34.370Z,15.90
2018-01-29T15:42:02.968Z,15.90
2018-01-29T15:44:32.613Z,15.60
2018-01-29T15:47:01.298Z,15.60
2018-01-29T15:49:30.804Z,15.50
2018-01-29T15:51:59.445Z,15.40
2018-01-29T15:54:28.118Z,15.30
2018-01-29T15:56:57.289Z,15.30
2018-01-29T15:59:26.794Z,15.40
2018-01-29T16:01:57.223Z,15.30
2018-01-29T16:04:26.771Z,15.20
2018-01-29T16:06:56.625Z,15.20
2018-01-29T16:09:25.976Z,15.20
2018-01-29T16:11:55.041Z,15.20
2018-01-29T16:14:24.103Z,15.00
2018-01-29T16:16:53.211Z,15.00
2018-01-29T16:19:21.957Z,15.00
2018-01-29T16:21:51.841Z,15.00
2018-01-29T16:24:20.605Z,15.10
2018-01-29T16:26:49.382Z,15.00
2018-01-29T16:29:18.098Z,14.90
2018-01-29T16:31:47.112Z,14.90
2018-01-29T16:34:16.208Z,14.90
2018-01-29T16:36:45.277Z,14.80
2018-01-29T16:39:14.331Z,14.70
2018-01-29T16:41:43.148Z,14.70
2018-01-29T16:44:11.941Z,14.70
2018-01-29T16:46:41.033Z,14.60
2018-01-29T16:49:10.708Z,14.60
2018-01-29T16:51:39.842Z,14.60
2018-01-29T16:54:08.667Z,14.60
2018-01-29T16:56:38.233Z,14.50
2018-01-29T16:59:06.901Z,14.40
2018-01-29T17:01:35.684Z,14.40
2018-01-29T17:04:04.602Z,14.30
2018-01-29T17:06:33.697Z,14.20
2018-01-29T17:09:02.546Z,14.20
2018-01-29T17:11:32.177Z,14.10
2018-01-29T17:14:00.919Z,14.10
2018-01-29T17:16:29.625Z,14.20
2018-01-29T17:18:59.164Z,14.20
2018-01-29T17:21:28.092Z,14.20
2018-01-29T17:23:57.681Z,14.10
2018-01-29T17:26:26.681Z,14.10
2018-01-29T17:28:55.367Z,14.00
2018-01-29T17:31:24.095Z,14.00
2018-01-29T17:33:53.537Z,14.00
2018-01-29T17:36:22.249Z,14.00
2018-01-29T17:38:51.135Z,14.00
2018-01-29T17:41:20.034Z,14.00
2018-01-29T17:43:49.772Z,13.90
2018-01-29T17:46:18.413Z,13.90
2018-01-29T17:48:47.051Z,13.90
2018-01-29T17:51:16.720Z,13.90
2018-01-29T17:53:46.525Z,13.90
2018-01-29T17:56:15.559Z,13.90
2018-01-29T17:58:45.292Z,13.90
2018-01-29T18:01:14.297Z,13.90
2018-01-29T18:03:43.211Z,13.90
2018-01-29T18:06:12.681Z,13.90
2018-01-29T18:08:41.403Z,13.90
2018-01-29T18:11:11.342Z,13.90
2018-01-29T18:13:40.929Z,13.90
2018-01-29T18:16:09.631Z,13.90
2018-01-29T18:18:40.036Z,13.80
2018-01-29T18:21:08.735Z,13.80
2018-01-29T18:23:37.471Z,13.80
2018-01-29T18:26:07.070Z,13.80
2018-01-29T18:28:35.998Z,13.90
2018-01-29T18:31:04.664Z,13.90
2018-01-29T18:33:33.794Z,13.80
2018-01-29T18:38:59.968Z,13.80
2018-01-29T18:41:28.715Z,13.90
2018-01-29T18:43:57.531Z,13.80
2018-01-29T18:46:26.179Z,13.80
2018-01-29T18:48:54.830Z,13.90
2018-01-29T18:51:23.469Z,13.90
2018-01-29T18:53:52.113Z,13.90
2018-01-29T18:56:20.951Z,13.90
2018-01-29T18:58:59.428Z,13.90
2018-01-29T19:01:34.554Z,13.80
2018-01-29T19:04:03.492Z,13.80
2018-01-29T19:06:32.239Z,13.80
2018-01-29T19:09:00.916Z,13.80
2018-01-29T19:11:29.751Z,13.80
2018-01-29T19:13:58.542Z,13.80
2018-01-29T19:16:27.330Z,13.80
2018-01-29T19:18:56.031Z,13.70
2018-01-29T19:21:24.910Z,13.70
2018-01-29T19:23:53.579Z,13.80
2018-01-29T19:26:22.321Z,13.70
2018-01-29T19:28:51.785Z,13.70
2018-01-29T19:31:21.291Z,13.70
2018-01-29T19:33:49.976Z,13.70
2018-01-29T19:36:18.579Z,13.70
2018-01-29T19:38:48.112Z,13.70
2018-01-29T19:41:17.678Z,13.60
2018-01-29T19:43:47.211Z,13.70
2018-01-29T19:46:16.888Z,13.70
2018-01-29T19:48:46.363Z,13.60
2018-01-29T19:51:15.083Z,13.60
2018-01-29T19:53:44.893Z,13.70
2018-01-29T19:56:13.578Z,13.70
2018-01-29T19:58:42.238Z,13.70
2018-01-29T20:01:10.901Z,13.70
2018-01-29T20:03:39.845Z,13.70
2018-01-29T20:06:08.606Z,13.60
2018-01-29T20:08:37.219Z,13.60
2018-01-29T20:11:05.877Z,13.60
2018-01-29T20:13:34.634Z,13.60
2018-01-29T20:16:04.204Z,13.50
2018-01-29T20:18:32.863Z,13.50
2018-01-29T20:21:01.496Z,13.50
2018-01-29T20:23:30.117Z,13.50
2018-01-29T20:25:59.562Z,13.40
2018-01-29T20:28:28.171Z,13.40
2018-01-29T20:30:56.808Z,13.40
2018-01-29T20:33:25.524Z,13.40
2018-01-29T20:35:54.231Z,13.30
2018-01-29T20:38:22.841Z,13.30
2018-01-29T20:40:52.293Z,13.30
2018-01-29T20:43:20.934Z,13.30
2018-01-29T20:45:50.584Z,13.20
2018-01-29T20:48:19.355Z,13.20
2018-01-29T20:50:48.157Z,13.30
2018-01-29T20:53:16.739Z,13.30
2018-01-29T20:55:45.471Z,13.20
2018-01-29T20:58:14.421Z,13.20
2018-01-29T21:00:43.321Z,13.30
2018-01-29T21:03:12.206Z,13.20
2018-01-29T21:05:40.814Z,13.20
2018-01-29T21:08:09.483Z,13.20
2018-01-29T21:10:38.262Z,13.20
2018-01-29T21:13:06.957Z,13.20
2018-01-29T21:15:35.923Z,13.20
2018-01-29T21:18:04.625Z,13.20
2018-01-29T21:20:33.288Z,13.20
2018-01-29T21:23:01.897Z,13.20
2018-01-29T21:25:30.599Z,13.20
2018-01-29T21:27:59.228Z,13.20
2018-01-29T21:30:27.891Z,13.10
2018-01-29T21:32:56.636Z,13.10
2018-01-29T21:35:25.351Z,13.00
2018-01-29T21:37:54.110Z,13.10
2018-01-29T21:40:23.257Z,13.00
2018-01-29T21:42:51.919Z,13.00
2018-01-29T21:45:20.533Z,12.90
2018-01-29T21:47:49.439Z,12.90
2018-01-29T21:50:18.086Z,12.80
2018-01-29T21:52:46.695Z,12.80
2018-01-29T21:55:15.474Z,12.80
2018-01-29T21:57:44.118Z,12.80
2018-01-29T22:00:12.810Z,12.70
2018-01-29T22:02:42.310Z,12.70
2018-01-29T22:05:11.035Z,12.70
2018-01-29T22:07:39.711Z,12.70
2018-01-29T22:10:08.483Z,12.60
2018-01-29T22:12:37.981Z,12.60
2018-01-29T22:15:07.692Z,12.60
2018-01-29T22:17:36.989Z,12.50
2018-01-29T22:20:05.879Z,12.60
2018-01-29T22:22:34.770Z,12.60
2018-01-29T22:25:03.781Z,12.60
2018-01-29T22:27:32.654Z,12.50
2018-01-29T22:30:01.550Z,12.60
2018-01-29T22:32:30.438Z,12.60
2018-01-29T22:34:59.157Z,12.60
2018-01-29T22:37:28.020Z,12.50
2018-01-29T22:39:56.698Z,12.50
2018-01-29T22:42:25.306Z,12.50
2018-01-29T22:44:53.967Z,12.50
2018-01-29T22:47:22.718Z,12.50
2018-01-29T22:49:51.551Z,12.50
2018-01-29T22:52:21.005Z,12.50
2018-01-29T22:54:50.374Z,12.50
2018-01-29T22:57:19.002Z,12.50
2018-01-29T22:59:47.828Z,12.50
2018-01-29T23:02:16.491Z,12.50
2018-01-29T23:04:45.204Z,12.50
2018-01-29T23:07:13.898Z,12.60
2018-01-29T23:09:42.776Z,12.60
2018-01-29T23:12:11.422Z,12.60
2018-01-29T23:20:37.334Z,12.40
2018-01-29T23:23:06.218Z,12.40
2018-01-29T23:25:36.358Z,12.40
2018-01-29T23:28:05.655Z,12.40
2018-01-29T23:30:36.138Z,12.30
2018-01-29T23:33:05.166Z,12.30
2018-01-29T23:35:34.256Z,12.30
2018-01-29T23:38:03.148Z,12.30
2018-01-29T23:40:32.245Z,12.30
2018-01-29T23:43:01.137Z,12.30
2018-01-29T23:45:29.824Z,12.30
2018-01-29T23:47:59.349Z,12.30
2018-01-29T23:50:28.833Z,12.30
2018-01-29T23:52:58.152Z,12.30
2018-01-29T23:55:26.919Z,12.30
2018-01-29T23:57:55.809Z,12.30
